DW1304 Shelton CT US current weather conditions

sailwx.info

Wind from 245 at 2 knots gusting 6

Air temperature 5.0° C
Dewpoint -0.4° C

Last reported at 2019-Dec-15 13:00 UTC.
Time now 2019-Dec-15 13:27 UTC

Location: N 41°18' W 073°09'.
View on Google Maps.

See reports from other nearby stations

  
Tides and Currents Weather Stations Pressure Air Temp Water Temp Dewpoint Dewpoint Depression Visibility Wind Speed Wind Dir Waves Ship Positions
date/time (UTC)wind fromknots sea level pressurealtimeterstation pressurevisibilityair tempwater tempwave heightnotes
2019-Dec-15 13:00 245 2 gusting 6 5.0
2019-Dec-15 12:45 184 2 gusting 9 5.0
2019-Dec-15 12:30 190 3 gusting 6 5.0
2019-Dec-15 12:15 234 1 gusting 6 5.0
2019-Dec-15 12:02 267 5 gusting 11 4.4
2019-Dec-15 11:47 252 1 gusting 6 4.4
2019-Dec-15 11:31 299 4 gusting 7 4.4
2019-Dec-15 11:16 283 1 gusting 6 4.4
2019-Dec-15 11:02 289 1 gusting 10 4.4
2019-Dec-15 10:47 258 3 gusting 6 4.4
2019-Dec-15 10:31 289 2 gusting 8 4.4
2019-Dec-15 10:17 240 1 gusting 6 4.4
2019-Dec-15 10:01 240 1 gusting 6 4.4
2019-Dec-15 09:48 269 2 gusting 6 4.4
2019-Dec-15 09:31 288 1 gusting 7 5.0
2019-Dec-15 09:16 237 2 gusting 6 5.0
2019-Dec-15 09:01 290 4 gusting 6 5.0
2019-Dec-15 08:46 273 5 gusting 11 4.4
2019-Dec-15 08:31 249 0 gusting 6 4.4
2019-Dec-15 08:16 252 4 gusting 12 4.4
2019-Dec-15 08:00 278 6 gusting 11 4.4
2019-Dec-15 07:45 259 2 gusting 9 4.4
2019-Dec-15 07:31 175 3 gusting 8 4.4
2019-Dec-15 07:15 257 5 gusting 10 4.4
2019-Dec-15 07:00 243 2 gusting 9 4.4
2019-Dec-15 06:45 243 2 gusting 6 4.4
2019-Dec-15 06:30 244 3 gusting 7 4.4
2019-Dec-15 06:15 264 3 gusting 7 4.4
2019-Dec-15 06:00 227 1 gusting 7 4.4
2019-Dec-15 05:45 238 3 gusting 9 4.4
2019-Dec-15 05:30 267 3 gusting 10 4.4
2019-Dec-15 05:17 286 2 gusting 8 4.4
2019-Dec-15 05:01 284 3 gusting 12 5.0
2019-Dec-15 04:46 257 2 gusting 7 5.0
2019-Dec-15 04:32 297 2 gusting 7 5.0
2019-Dec-15 04:17 254 2 gusting 8 5.6
2019-Dec-15 04:01 282 3 gusting 8 7.2
2019-Dec-15 03:46 223 1 gusting 7 7.2
2019-Dec-15 03:31 214 1 gusting 5 7.2
2019-Dec-15 03:17 265 1 gusting 6 7.8
2019-Dec-15 03:00 255 2 gusting 8 7.8
2019-Dec-15 02:46 279 1 gusting 6 7.8
2019-Dec-15 02:31 253 2 gusting 8 7.8
2019-Dec-15 02:16 239 4 gusting 6 7.8
2019-Dec-15 02:02 248 2 gusting 6 8.3
2019-Dec-15 01:46 233 2 gusting 6 8.3
2019-Dec-15 01:30 233 2 gusting 6 8.3
2019-Dec-15 01:15 245 2 gusting 7 8.9
2019-Dec-15 01:00 187 1 gusting 5 9.4
2019-Dec-15 00:47 256 4 gusting 12 10.0
2019-Dec-15 00:31 209 2 gusting 7 10.6
2019-Dec-15 00:17 229 3 gusting 6 10.6
2019-Dec-15 00:00 208 2 gusting 6 11.1
2019-Dec-14 23:45 223 2 gusting 5 11.1
2019-Dec-14 23:31 170 0 gusting 4 11.1
2019-Dec-14 23:16 200 2 gusting 9 11.1
2019-Dec-14 23:01 128 2 gusting 6 11.1
2019-Dec-14 22:45 147 4 gusting 8 11.1
2019-Dec-14 22:30 190 4 gusting 7 11.1
2019-Dec-14 22:15 161 2 gusting 7 11.7
2019-Dec-14 22:02 161 1 gusting 7 11.7
2019-Dec-14 21:45 196 3 gusting 7 11.7
2019-Dec-14 21:30 202 1 gusting 6 11.7
2019-Dec-14 21:00 173 2 gusting 5 11.7
2019-Dec-14 20:45 200 1 gusting 6 11.7
2019-Dec-14 20:30 182 2 gusting 6 11.7
2019-Dec-14 20:15 169 1 gusting 6 11.1
2019-Dec-14 20:00 188 0 gusting 4 11.1
2019-Dec-14 19:45 099 11.1
2019-Dec-14 19:30 094 0 gusting 3 11.1
2019-Dec-14 19:15 102 11.1
2019-Dec-14 19:04 100 11.1
2019-Dec-14 18:47 163 10.6
2019-Dec-14 18:32 088 0 gusting 3 10.6
2019-Dec-14 18:16 071 1 gusting 3 10.6
2019-Dec-14 18:01 090 10.6
2019-Dec-14 17:47 090 10.6
2019-Dec-14 17:31 090 10.6
2019-Dec-14 17:17 076 10.0
2019-Dec-14 17:01 069 10.0
2019-Dec-14 16:46 040 9.4
2019-Dec-14 16:30 111 8.9
2019-Dec-14 16:16 120 8.9
2019-Dec-14 16:00 120 8.9
2019-Dec-14 15:45 120 8.9
2019-Dec-14 15:30 077 0 gusting 2 8.9
2019-Dec-14 15:15 049 8.9
2019-Dec-14 15:00 049 8.3
2019-Dec-14 14:45 049 0 gusting 2 8.3
2019-Dec-14 14:31 017 1 gusting 3 7.8
2019-Dec-14 14:15 013 0 gusting 3 7.8
2019-Dec-14 14:00 019 1 gusting 3 7.8
2019-Dec-14 13:45 029 0 gusting 3 8.3
2019-Dec-14 13:30 360 0 gusting 3 7.8
2019-Dec-14 13:15 355 1 gusting 4 7.8
2019-Dec-14 13:03 049 0 gusting 2 7.8
2019-Dec-14 12:47 024 0 gusting 5 7.8
2019-Dec-14 12:32 029 1 gusting 3 7.8
2019-Dec-14 12:17 040 1 gusting 4 7.8
2019-Dec-14 12:02 076 2 gusting 6 7.8
2019-Dec-14 11:31 031 2 gusting 5 7.8
2019-Dec-14 10:47 339 1 gusting 6 7.8
2019-Dec-14 10:30 015 0 gusting 4 7.8
2019-Dec-14 10:17 005 7.8
2019-Dec-14 10:01 021 3 gusting 6 7.8
2019-Dec-14 09:47 350 1 gusting 7 7.8
2019-Dec-14 09:31 034 1 gusting 6 7.8
2019-Dec-14 09:00 065 0 gusting 5 8.3
2019-Dec-14 08:45 289 7.8
2019-Dec-14 08:31 285 0 gusting 7 7.8
2019-Dec-14 08:16 314 1 gusting 6 7.2
2019-Dec-14 08:00 342 2 gusting 13 7.2
2019-Dec-14 07:47 355 4 gusting 11 7.8
2019-Dec-14 07:30 092 1 gusting 11 7.8
2019-Dec-14 07:15 346 2 gusting 9 7.2
2019-Dec-14 07:00 055 2 gusting 9 7.2
2019-Dec-14 06:45 345 2 gusting 7 7.2
2019-Dec-14 06:30 025 0 gusting 5 7.2
2019-Dec-14 06:17 355 1 gusting 9 7.2
2019-Dec-14 06:02 061 3 gusting 8 7.2
2019-Dec-14 05:47 032 1 gusting 6 7.2
2019-Dec-14 05:32 030 1 gusting 3 7.2
2019-Dec-14 05:16 051 1 gusting 7 7.8
2019-Dec-14 05:01 111 2 gusting 6 7.8
2019-Dec-14 04:47 005 1 gusting 9 7.2
2019-Dec-14 04:31 005 2 gusting 8 7.2
2019-Dec-14 04:16 045 3 gusting 9 7.2
2019-Dec-14 04:00 037 2 gusting 10 7.2
2019-Dec-14 03:47 118 1 gusting 6 7.2
2019-Dec-14 03:30 082 5 gusting 8 7.2
2019-Dec-14 03:15 049 4 gusting 8 7.2
2019-Dec-14 03:00 101 2 gusting 8 6.7
2019-Dec-14 02:45 049 0 gusting 6 6.7
2019-Dec-14 02:31 094 1 gusting 9 6.1
2019-Dec-14 02:15 040 2 gusting 7 6.1
2019-Dec-14 02:00 034 2 gusting 7 6.1
2019-Dec-14 01:46 320 2 gusting 8 6.1
2019-Dec-14 01:30 071 2 gusting 6 5.6
2019-Dec-14 01:01 055 1 gusting 5 5.0
2019-Dec-14 00:46 111 1 gusting 5 5.0
2019-Dec-14 00:32 349 2 gusting 5 4.4
2019-Dec-14 00:17 057 0 gusting 5 4.4
2019-Dec-14 00:01 330 4.4
2019-Dec-13 23:47 038 0 gusting 5 4.4
2019-Dec-13 23:31 349 2 gusting 6 4.4
2019-Dec-13 23:17 049 2 gusting 4 4.4
2019-Dec-13 23:02 351 0 gusting 4 4.4
2019-Dec-13 22:48 097 0 gusting 3 4.4
2019-Dec-13 22:32 079 1 gusting 3 4.4
2019-Dec-13 22:15 019 4.4
2019-Dec-13 22:03 349 0 gusting 3 4.4
2019-Dec-13 21:46 034 0 gusting 3 4.4
2019-Dec-13 21:31 024 1 gusting 4 4.4
2019-Dec-13 21:16 021 4.4
2019-Dec-13 21:00 086 0 gusting 7 4.4
2019-Dec-13 20:46 036 3.9
2019-Dec-13 20:30 053 0 gusting 4 3.9
2019-Dec-13 20:16 103 1 gusting 6 3.9
2019-Dec-13 20:00 106 2 gusting 7 3.9
2019-Dec-13 19:46 074 1 gusting 6 3.9
2019-Dec-13 19:30 086 3.9
2019-Dec-13 19:15 074 2 gusting 5 3.9
2019-Dec-13 19:00 100 1 gusting 7 3.3
2019-Dec-13 18:45 098 3 gusting 6 3.3
2019-Dec-13 18:30 089 1 gusting 8 3.3
2019-Dec-13 18:15 024 1 gusting 6 2.8
2019-Dec-13 18:00 095 1 gusting 6 2.8
2019-Dec-13 17:45 066 0 gusting 5 2.8
2019-Dec-13 17:30 030 1 gusting 4 2.8
2019-Dec-13 17:20 046 2.8
2019-Dec-13 17:02 042 0 gusting 3 2.8
2019-Dec-13 16:31 013 2.2
2019-Dec-13 16:19 013 0 gusting 2 2.2
2019-Dec-13 16:01 355 0 gusting 2 2.2
2019-Dec-13 15:46 351 2.2
2019-Dec-13 15:32 038 2.2
2019-Dec-13 15:17 028 0 gusting 3 2.2
2019-Dec-13 15:02 069 2.2
2019-Dec-13 14:46 083 2.2
2019-Dec-13 14:30 067 1.7
2019-Dec-13 14:16 086 1.7
2019-Dec-13 14:01 092 1 gusting 5 1.1
2019-Dec-13 13:46 084 0 gusting 2 0.6
2019-Dec-13 13:30 082 0.6
2019-Dec-13 13:15 086 0 gusting 3 -0.0
2019-Dec-13 13:00 086 -0.0